createdAt,value
2023-01-11T00:09:16.386Z,100286.72
2023-01-11T00:19:18.029Z,100291.56
2023-01-11T00:29:21.792Z,100288.94
2023-01-11T00:39:23.420Z,100287.22
2023-01-11T00:49:32.320Z,100292.22
2023-01-11T00:59:35.235Z,100313.47
2023-01-11T01:09:37.812Z,100333.09
2023-01-11T01:19:39.589Z,100336.38
2023-01-11T01:29:44.763Z,100359.97
2023-01-11T01:39:48.438Z,100341.22
2023-01-11T01:49:51.334Z,100353.63
2023-01-11T01:59:57.023Z,100351.72
2023-01-11T02:10:19.682Z,100370.22
2023-01-11T02:20:43.277Z,100355.97
2023-01-11T02:31:04.731Z,100356.06
2023-01-11T02:41:57.191Z,100375.41
2023-01-11T02:52:12.988Z,100373.50
2023-01-11T03:02:17.027Z,100384.13
2023-01-11T03:12:47.648Z,100395.84
2023-01-11T03:23:01.493Z,100410.75
2023-01-11T03:33:22.968Z,100422.22
2023-01-11T03:43:26.754Z,100410.22
2023-01-11T03:53:32.889Z,100392.59
2023-01-11T04:03:34.563Z,100379.72
2023-01-11T04:13:36.436Z,100388.94
2023-01-11T04:23:38.567Z,100399.44
2023-01-11T04:33:40.115Z,100381.06
2023-01-11T04:43:41.674Z,100429.69
2023-01-11T04:53:43.527Z,100438.69
2023-01-11T05:03:53.152Z,100442.44
2023-01-11T05:13:54.853Z,100417.63
2023-01-11T05:23:57.014Z,100448.00
2023-01-11T05:33:59.450Z,100436.25
2023-01-11T05:44:19.828Z,100430.50
2023-01-11T05:54:21.881Z,100425.88
2023-01-11T06:04:24.249Z,100415.47
2023-01-11T06:14:29.519Z,100420.69
2023-01-11T06:24:33.256Z,100407.94
2023-01-11T06:34:41.685Z,100422.31
2023-01-11T06:44:44.467Z,100441.06
2023-01-11T06:54:47.232Z,100458.66
2023-01-11T07:04:51.203Z,100484.81
2023-01-11T07:14:53.892Z,100500.88
2023-01-11T07:24:55.655Z,100521.25
2023-01-11T07:34:59.584Z,100513.81
2023-01-11T07:45:03.483Z,100506.13
2023-01-11T07:55:05.838Z,100498.00
2023-01-11T08:05:09.398Z,100516.78
2023-01-11T08:15:14.384Z,100521.97
2023-01-11T08:25:25.358Z,100526.28
2023-01-11T08:35:29.739Z,100537.81
2023-01-11T08:45:36.739Z,100527.72
2023-01-11T08:55:43.921Z,100531.22
2023-01-11T09:05:51.730Z,100540.69
2023-01-11T09:15:59.712Z,100530.66
2023-01-11T09:26:01.444Z,100537.06
2023-01-11T09:36:07.972Z,100528.25
2023-01-11T09:57:02.948Z,100516.56
2023-01-11T10:07:16.865Z,100487.25
2023-01-11T10:28:29.474Z,100473.78
2023-01-11T10:38:59.932Z,100481.31
2023-01-11T10:49:29.071Z,100484.19
2023-01-11T11:00:00.607Z,100480.31
2023-01-11T11:10:22.560Z,100469.09
2023-01-11T11:20:32.225Z,100446.91
2023-01-11T11:30:43.277Z,100432.75
2023-01-11T11:40:56.027Z,100432.72
2023-01-11T11:51:00.911Z,100439.41
2023-01-11T12:01:07.041Z,100433.19
2023-01-11T12:11:20.631Z,100434.59
2023-01-11T12:21:50.725Z,100434.56
2023-01-11T12:32:06.000Z,100444.97
2023-01-11T12:42:26.972Z,100473.75
2023-01-11T12:52:46.134Z,100455.03
2023-01-11T13:02:57.993Z,100446.66
2023-01-11T13:13:17.956Z,100440.69
2023-01-11T13:23:21.689Z,100436.34
2023-01-11T13:33:28.092Z,100443.47
2023-01-11T13:43:55.640Z,100465.31
2023-01-11T13:54:37.895Z,100460.38
2023-01-11T14:05:02.009Z,100473.13
2023-01-11T14:15:26.566Z,100477.09
2023-01-11T14:25:46.541Z,100446.25
2023-01-11T14:36:23.708Z,100462.97
2023-01-11T14:46:44.987Z,100469.06
2023-01-11T14:56:48.304Z,100450.78
2023-01-11T15:17:18.730Z,100452.94
2023-01-11T15:27:27.661Z,100472.16
2023-01-11T15:38:00.576Z,100465.91
2023-01-11T15:48:32.947Z,100473.84
2023-01-11T15:59:08.027Z,100467.28
2023-01-11T16:09:12.670Z,100469.56
2023-01-11T16:19:20.055Z,100468.00
2023-01-11T16:29:27.013Z,100460.69
2023-01-11T16:39:30.943Z,100457.84
2023-01-11T16:49:35.475Z,100464.56
2023-01-11T16:59:42.538Z,100461.41
2023-01-11T17:09:45.021Z,100467.72
2023-01-11T17:19:52.617Z,100463.69
2023-01-11T17:29:58.392Z,100467.84
2023-01-11T17:40:04.395Z,100473.13
2023-01-11T17:50:08.146Z,100478.88
2023-01-11T18:00:26.514Z,100480.38
2023-01-11T18:10:33.926Z,100490.72
2023-01-11T18:20:41.326Z,100513.66
2023-01-11T18:30:54.989Z,100511.31
2023-01-11T18:40:59.720Z,100502.38
2023-01-11T18:51:02.175Z,100518.25
2023-01-11T19:01:08.832Z,100523.72
2023-01-11T19:11:20.591Z,100522.63
2023-01-11T19:21:26.012Z,100542.84
2023-01-11T19:31:28.569Z,100537.88
2023-01-11T19:41:50.886Z,100551.88
2023-01-11T19:51:59.667Z,100572.13
2023-01-11T20:02:03.743Z,100580.22
2023-01-11T20:12:17.996Z,100574.78
2023-01-11T20:22:23.515Z,100557.06
2023-01-11T20:32:40.925Z,100564.72
2023-01-11T20:42:45.863Z,100567.63
2023-01-11T20:52:52.235Z,100570.78
2023-01-11T21:03:03.174Z,100578.66
2023-01-11T21:23:28.612Z,100589.72
2023-01-11T21:33:39.222Z,100595.91
2023-01-11T21:43:45.705Z,100599.59
2023-01-11T21:53:56.605Z,100606.13
2023-01-11T22:03:59.802Z,100612.44
2023-01-11T22:14:12.829Z,100624.78
2023-01-11T22:24:15.742Z,100613.28
2023-01-11T22:34:18.376Z,100623.28
2023-01-11T22:44:24.875Z,100632.81
2023-01-11T22:54:26.799Z,100636.00
2023-01-11T23:04:29.205Z,100628.78
2023-01-11T23:14:33.689Z,100622.34
2023-01-11T23:24:37.658Z,100610.81
2023-01-11T23:34:39.523Z,100629.78
2023-01-11T23:44:41.518Z,100619.25
2023-01-11T23:54:45.721Z,100626.38
